Terminal Aerodrome Forecast
Issued by NWS

Current Version | Previous Version | Text Only | Print | Product List | Glossary On
Versions: 1 2 3 4 5 6 7 8 9 10 11 12 13 14 15 16
086
FTUS44 KLZK 201720
TAFPBF
TAF
KPBF 201720Z 2018/2118 15008KT P6SM BKN250
     FM210000 15005KT P6SM SCT100 BKN250
     FM211200 17010KT P6SM BKN040=

USA.gov is the U.S. government's official web portal to all federal, state and local government web resources and services.